sensor_id;sensor_type;location;lat;lon;timestamp;P1;durP1;ratioP1;P2;durP2;ratioP2
11396;SDS011;5754;43.726;7.416;2024-01-10T00:00:05;67.77;;;64.47;;
11396;SDS011;5754;43.726;7.416;2024-01-10T00:02:41;69.97;;;66.47;;
11396;SDS011;5754;43.726;7.416;2024-01-10T00:05:18;71.80;;;68.37;;
11396;SDS011;5754;43.726;7.416;2024-01-10T00:07:54;74.07;;;70.20;;
11396;SDS011;5754;43.726;7.416;2024-01-10T00:10:29;75.60;;;71.83;;
11396;SDS011;5754;43.726;7.416;2024-01-10T00:13:03;76.10;;;72.27;;
11396;SDS011;5754;43.726;7.416;2024-01-10T00:15:39;72.00;;;68.43;;
11396;SDS011;5754;43.726;7.416;2024-01-10T00:18:14;72.70;;;69.03;;
11396;SDS011;5754;43.726;7.416;2024-01-10T00:20:50;69.73;;;66.43;;
11396;SDS011;5754;43.726;7.416;2024-01-10T00:23:27;72.17;;;68.67;;
11396;SDS011;5754;43.726;7.416;2024-01-10T00:26:02;73.20;;;69.60;;
11396;SDS011;5754;43.726;7.416;2024-01-10T00:28:36;71.20;;;67.73;;
11396;SDS011;5754;43.726;7.416;2024-01-10T00:31:11;73.40;;;69.80;;
11396;SDS011;5754;43.726;7.416;2024-01-10T00:33:47;73.37;;;69.77;;
11396;SDS011;5754;43.726;7.416;2024-01-10T00:36:21;72.80;;;69.40;;
11396;SDS011;5754;43.726;7.416;2024-01-10T00:38:56;72.73;;;69.13;;
11396;SDS011;5754;43.726;7.416;2024-01-10T00:41:32;72.50;;;69.00;;
11396;SDS011;5754;43.726;7.416;2024-01-10T00:44:08;72.83;;;69.33;;
11396;SDS011;5754;43.726;7.416;2024-01-10T00:46:42;73.57;;;70.07;;
11396;SDS011;5754;43.726;7.416;2024-01-10T00:49:18;72.47;;;68.80;;
11396;SDS011;5754;43.726;7.416;2024-01-10T00:51:53;73.53;;;70.10;;
11396;SDS011;5754;43.726;7.416;2024-01-10T00:54:27;74.10;;;70.30;;
11396;SDS011;5754;43.726;7.416;2024-01-10T00:57:03;74.17;;;70.73;;
11396;SDS011;5754;43.726;7.416;2024-01-10T00:59:38;74.37;;;70.80;;
11396;SDS011;5754;43.726;7.416;2024-01-10T01:02:13;74.43;;;70.73;;
11396;SDS011;5754;43.726;7.416;2024-01-10T01:04:48;72.70;;;69.10;;
11396;SDS011;5754;43.726;7.416;2024-01-10T01:07:23;71.90;;;68.37;;
11396;SDS011;5754;43.726;7.416;2024-01-10T01:09:58;72.87;;;69.47;;
11396;SDS011;5754;43.726;7.416;2024-01-10T01:12:34;73.97;;;70.57;;
11396;SDS011;5754;43.726;7.416;2024-01-10T01:15:09;74.50;;;71.00;;
11396;SDS011;5754;43.726;7.416;2024-01-10T01:17:45;71.70;;;68.30;;
11396;SDS011;5754;43.726;7.416;2024-01-10T01:20:21;75.37;;;71.97;;
11396;SDS011;5754;43.726;7.416;2024-01-10T01:22:56;73.10;;;69.70;;
11396;SDS011;5754;43.726;7.416;2024-01-10T01:25:32;73.37;;;69.97;;
11396;SDS011;5754;43.726;7.416;2024-01-10T01:28:07;75.17;;;71.77;;
11396;SDS011;5754;43.726;7.416;2024-01-10T01:30:42;74.90;;;71.40;;
11396;SDS011;5754;43.726;7.416;2024-01-10T01:33:16;72.93;;;69.53;;
11396;SDS011;5754;43.726;7.416;2024-01-10T01:35:51;75.13;;;71.73;;
11396;SDS011;5754;43.726;7.416;2024-01-10T01:38:29;73.70;;;70.30;;
11396;SDS011;5754;43.726;7.416;2024-01-10T01:41:05;72.13;;;68.73;;
11396;SDS011;5754;43.726;7.416;2024-01-10T01:43:40;70.33;;;67.03;;
11396;SDS011;5754;43.726;7.416;2024-01-10T01:46:15;73.33;;;70.03;;
11396;SDS011;5754;43.726;7.416;2024-01-10T01:48:50;71.70;;;68.30;;
11396;SDS011;5754;43.726;7.416;2024-01-10T01:51:28;70.70;;;67.47;;
11396;SDS011;5754;43.726;7.416;2024-01-10T01:54:07;69.70;;;66.40;;
11396;SDS011;5754;43.726;7.416;2024-01-10T01:56:43;71.83;;;68.53;;
11396;SDS011;5754;43.726;7.416;2024-01-10T01:59:19;75.07;;;71.67;;
11396;SDS011;5754;43.726;7.416;2024-01-10T02:01:54;71.10;;;67.70;;
11396;SDS011;5754;43.726;7.416;2024-01-10T02:04:32;69.23;;;66.00;;
11396;SDS011;5754;43.726;7.416;2024-01-10T02:07:07;71.57;;;68.17;;
11396;SDS011;5754;43.726;7.416;2024-01-10T02:09:43;67.70;;;64.60;;
11396;SDS011;5754;43.726;7.416;2024-01-10T02:12:18;69.33;;;66.13;;
11396;SDS011;5754;43.726;7.416;2024-01-10T02:14:54;71.60;;;68.33;;
11396;SDS011;5754;43.726;7.416;2024-01-10T02:17:28;67.23;;;64.13;;
11396;SDS011;5754;43.726;7.416;2024-01-10T02:20:13;68.20;;;65.10;;
11396;SDS011;5754;43.726;7.416;2024-01-10T02:22:52;68.43;;;65.13;;
11396;SDS011;5754;43.726;7.416;2024-01-10T02:25:27;67.83;;;64.73;;
11396;SDS011;5754;43.726;7.416;2024-01-10T02:28:03;67.67;;;64.50;;
11396;SDS011;5754;43.726;7.416;2024-01-10T02:30:39;69.23;;;66.03;;
11396;SDS011;5754;43.726;7.416;2024-01-10T02:33:14;67.00;;;63.70;;
11396;SDS011;5754;43.726;7.416;2024-01-10T02:35:50;65.23;;;62.27;;
11396;SDS011;5754;43.726;7.416;2024-01-10T02:38:25;66.43;;;63.27;;
11396;SDS011;5754;43.726;7.416;2024-01-10T02:41:00;64.77;;;61.87;;
11396;SDS011;5754;43.726;7.416;2024-01-10T02:43:36;65.50;;;62.60;;
11396;SDS011;5754;43.726;7.416;2024-01-10T02:46:10;63.27;;;60.30;;
11396;SDS011;5754;43.726;7.416;2024-01-10T02:48:45;65.07;;;62.17;;
11396;SDS011;5754;43.726;7.416;2024-01-10T02:51:21;62.03;;;59.23;;
11396;SDS011;5754;43.726;7.416;2024-01-10T02:53:56;62.70;;;59.67;;
11396;SDS011;5754;43.726;7.416;2024-01-10T02:56:31;62.53;;;59.77;;
11396;SDS011;5754;43.726;7.416;2024-01-10T02:59:08;61.53;;;58.83;;
11396;SDS011;5754;43.726;7.416;2024-01-10T03:01:43;62.20;;;59.40;;
11396;SDS011;5754;43.726;7.416;2024-01-10T03:04:18;64.77;;;61.87;;
11396;SDS011;5754;43.726;7.416;2024-01-10T03:06:54;65.30;;;62.30;;
11396;SDS011;5754;43.726;7.416;2024-01-10T03:09:30;64.20;;;61.20;;
11396;SDS011;5754;43.726;7.416;2024-01-10T03:12:05;65.20;;;62.20;;
11396;SDS011;5754;43.726;7.416;2024-01-10T03:14:42;66.30;;;63.30;;
11396;SDS011;5754;43.726;7.416;2024-01-10T03:17:16;65.67;;;62.63;;
11396;SDS011;5754;43.726;7.416;2024-01-10T03:19:51;65.50;;;62.60;;
11396;SDS011;5754;43.726;7.416;2024-01-10T03:22:27;64.17;;;61.37;;
11396;SDS011;5754;43.726;7.416;2024-01-10T03:25:03;65.47;;;62.57;;
11396;SDS011;5754;43.726;7.416;2024-01-10T03:27:38;62.87;;;60.03;;
11396;SDS011;5754;43.726;7.416;2024-01-10T03:30:13;65.93;;;62.93;;
11396;SDS011;5754;43.726;7.416;2024-01-10T03:32:49;62.87;;;60.00;;
11396;SDS011;5754;43.726;7.416;2024-01-10T03:35:24;62.70;;;59.90;;
11396;SDS011;5754;43.726;7.416;2024-01-10T03:37:59;62.53;;;59.73;;
11396;SDS011;5754;43.726;7.416;2024-01-10T03:40:35;64.63;;;61.73;;
11396;SDS011;5754;43.726;7.416;2024-01-10T03:43:10;62.90;;;59.77;;
11396;SDS011;5754;43.726;7.416;2024-01-10T03:45:46;65.00;;;61.90;;
11396;SDS011;5754;43.726;7.416;2024-01-10T03:48:20;65.43;;;62.17;;
11396;SDS011;5754;43.726;7.416;2024-01-10T03:50:56;62.67;;;59.67;;
11396;SDS011;5754;43.726;7.416;2024-01-10T03:53:30;61.60;;;58.80;;
11396;SDS011;5754;43.726;7.416;2024-01-10T03:56:06;63.63;;;60.63;;
11396;SDS011;5754;43.726;7.416;2024-01-10T03:58:41;66.63;;;63.63;;
11396;SDS011;5754;43.726;7.416;2024-01-10T04:01:21;69.70;;;66.47;;
11396;SDS011;5754;43.726;7.416;2024-01-10T04:03:59;70.13;;;66.97;;
11396;SDS011;5754;43.726;7.416;2024-01-10T04:06:34;69.60;;;66.50;;
11396;SDS011;5754;43.726;7.416;2024-01-10T04:09:09;70.80;;;67.67;;
11396;SDS011;5754;43.726;7.416;2024-01-10T04:11:45;68.43;;;65.27;;
11396;SDS011;5754;43.726;7.416;2024-01-10T04:14:20;68.97;;;65.67;;
11396;SDS011;5754;43.726;7.416;2024-01-10T04:16:54;74.17;;;70.87;;
11396;SDS011;5754;43.726;7.416;2024-01-10T04:19:29;70.10;;;67.00;;
11396;SDS011;5754;43.726;7.416;2024-01-10T04:22:04;72.23;;;69.13;;
11396;SDS011;5754;43.726;7.416;2024-01-10T04:24:41;73.60;;;70.40;;
11396;SDS011;5754;43.726;7.416;2024-01-10T04:27:16;74.17;;;70.87;;
11396;SDS011;5754;43.726;7.416;2024-01-10T04:29:56;74.13;;;70.93;;
11396;SDS011;5754;43.726;7.416;2024-01-10T04:32:31;73.90;;;70.70;;
11396;SDS011;5754;43.726;7.416;2024-01-10T04:35:08;74.77;;;71.57;;
11396;SDS011;5754;43.726;7.416;2024-01-10T04:37:43;75.57;;;72.37;;
11396;SDS011;5754;43.726;7.416;2024-01-10T04:40:18;77.40;;;74.00;;
11396;SDS011;5754;43.726;7.416;2024-01-10T04:42:53;77.87;;;74.57;;
11396;SDS011;5754;43.726;7.416;2024-01-10T04:45:29;75.63;;;72.33;;
11396;SDS011;5754;43.726;7.416;2024-01-10T04:48:05;76.73;;;73.33;;
11396;SDS011;5754;43.726;7.416;2024-01-10T04:50:40;75.37;;;72.17;;
11396;SDS011;5754;43.726;7.416;2024-01-10T04:53:16;77.10;;;73.80;;
11396;SDS011;5754;43.726;7.416;2024-01-10T04:55:51;78.43;;;74.53;;
11396;SDS011;5754;43.726;7.416;2024-01-10T04:58:27;75.03;;;71.83;;
11396;SDS011;5754;43.726;7.416;2024-01-10T05:01:03;76.20;;;73.00;;
11396;SDS011;5754;43.726;7.416;2024-01-10T05:03:39;76.57;;;73.27;;
11396;SDS011;5754;43.726;7.416;2024-01-10T05:06:14;76.93;;;73.63;;
11396;SDS011;5754;43.726;7.416;2024-01-10T05:08:50;77.40;;;74.10;;
11396;SDS011;5754;43.726;7.416;2024-01-10T05:11:25;78.20;;;74.80;;
11396;SDS011;5754;43.726;7.416;2024-01-10T05:14:01;78.90;;;75.50;;
11396;SDS011;5754;43.726;7.416;2024-01-10T05:16:37;78.47;;;75.07;;
11396;SDS011;5754;43.726;7.416;2024-01-10T05:19:12;77.07;;;73.57;;
11396;SDS011;5754;43.726;7.416;2024-01-10T05:21:47;78.73;;;75.33;;
11396;SDS011;5754;43.726;7.416;2024-01-10T05:24:22;79.67;;;76.10;;
11396;SDS011;5754;43.726;7.416;2024-01-10T05:26:59;79.17;;;75.67;;
11396;SDS011;5754;43.726;7.416;2024-01-10T05:29:33;76.53;;;73.23;;
11396;SDS011;5754;43.726;7.416;2024-01-10T05:32:08;80.10;;;76.70;;
11396;SDS011;5754;43.726;7.416;2024-01-10T05:34:42;79.80;;;76.30;;
11396;SDS011;5754;43.726;7.416;2024-01-10T05:37:18;77.63;;;74.33;;
11396;SDS011;5754;43.726;7.416;2024-01-10T05:39:55;79.43;;;75.93;;
11396;SDS011;5754;43.726;7.416;2024-01-10T05:42:31;80.30;;;76.80;;
11396;SDS011;5754;43.726;7.416;2024-01-10T05:45:08;78.93;;;75.57;;
11396;SDS011;5754;43.726;7.416;2024-01-10T05:47:43;79.63;;;76.23;;
11396;SDS011;5754;43.726;7.416;2024-01-10T05:50:18;80.23;;;76.73;;
11396;SDS011;5754;43.726;7.416;2024-01-10T05:52:53;79.03;;;75.57;;
11396;SDS011;5754;43.726;7.416;2024-01-10T05:55:29;78.57;;;75.17;;
11396;SDS011;5754;43.726;7.416;2024-01-10T05:58:03;79.97;;;76.57;;
11396;SDS011;5754;43.726;7.416;2024-01-10T06:00:38;79.10;;;75.70;;
11396;SDS011;5754;43.726;7.416;2024-01-10T06:03:13;81.10;;;77.67;;
11396;SDS011;5754;43.726;7.416;2024-01-10T06:05:48;80.37;;;76.80;;
11396;SDS011;5754;43.726;7.416;2024-01-10T06:08:23;79.43;;;76.00;;
11396;SDS011;5754;43.726;7.416;2024-01-10T06:11:02;79.40;;;75.90;;
11396;SDS011;5754;43.726;7.416;2024-01-10T06:13:36;79.57;;;76.00;;
11396;SDS011;5754;43.726;7.416;2024-01-10T06:16:14;78.80;;;75.30;;
11396;SDS011;5754;43.726;7.416;2024-01-10T06:18:51;78.90;;;75.50;;
11396;SDS011;5754;43.726;7.416;2024-01-10T06:21:25;79.70;;;76.30;;
11396;SDS011;5754;43.726;7.416;2024-01-10T06:24:00;81.93;;;78.33;;
11396;SDS011;5754;43.726;7.416;2024-01-10T06:26:35;79.00;;;75.60;;
11396;SDS011;5754;43.726;7.416;2024-01-10T06:29:10;80.50;;;76.90;;
11396;SDS011;5754;43.726;7.416;2024-01-10T06:34:27;85.90;;;81.73;;
11396;SDS011;5754;43.726;7.416;2024-01-10T06:37:02;84.67;;;80.57;;
11396;SDS011;5754;43.726;7.416;2024-01-10T06:39:37;80.97;;;77.27;;
11396;SDS011;5754;43.726;7.416;2024-01-10T06:42:11;80.90;;;77.33;;
11396;SDS011;5754;43.726;7.416;2024-01-10T06:44:47;80.07;;;76.37;;
11396;SDS011;5754;43.726;7.416;2024-01-10T06:47:21;79.80;;;76.40;;
11396;SDS011;5754;43.726;7.416;2024-01-10T06:49:56;81.10;;;77.40;;
11396;SDS011;5754;43.726;7.416;2024-01-10T06:52:31;80.10;;;76.50;;
11396;SDS011;5754;43.726;7.416;2024-01-10T06:55:07;80.30;;;76.50;;
11396;SDS011;5754;43.726;7.416;2024-01-10T06:57:42;80.07;;;76.67;;
11396;SDS011;5754;43.726;7.416;2024-01-10T07:00:17;82.47;;;78.67;;
11396;SDS011;5754;43.726;7.416;2024-01-10T07:02:54;80.97;;;77.47;;
11396;SDS011;5754;43.726;7.416;2024-01-10T07:05:31;81.60;;;77.87;;
11396;SDS011;5754;43.726;7.416;2024-01-10T07:08:06;81.53;;;77.97;;
11396;SDS011;5754;43.726;7.416;2024-01-10T07:10:40;80.70;;;77.20;;
11396;SDS011;5754;43.726;7.416;2024-01-10T07:13:16;81.00;;;77.40;;
11396;SDS011;5754;43.726;7.416;2024-01-10T07:15:51;82.63;;;78.77;;
11396;SDS011;5754;43.726;7.416;2024-01-10T07:18:30;81.97;;;78.37;;
11396;SDS011;5754;43.726;7.416;2024-01-10T07:21:06;81.57;;;77.97;;
11396;SDS011;5754;43.726;7.416;2024-01-10T07:23:43;78.27;;;74.63;;
11396;SDS011;5754;43.726;7.416;2024-01-10T07:26:18;80.00;;;76.37;;
11396;SDS011;5754;43.726;7.416;2024-01-10T07:28:54;78.60;;;75.10;;
11396;SDS011;5754;43.726;7.416;2024-01-10T07:31:30;79.00;;;75.63;;
11396;SDS011;5754;43.726;7.416;2024-01-10T07:34:05;79.60;;;76.13;;
11396;SDS011;5754;43.726;7.416;2024-01-10T07:36:41;80.23;;;76.53;;
11396;SDS011;5754;43.726;7.416;2024-01-10T07:39:16;81.37;;;77.67;;
11396;SDS011;5754;43.726;7.416;2024-01-10T07:41:52;80.30;;;76.80;;
11396;SDS011;5754;43.726;7.416;2024-01-10T07:44:26;81.60;;;78.10;;
11396;SDS011;5754;43.726;7.416;2024-01-10T07:47:02;81.63;;;78.03;;
11396;SDS011;5754;43.726;7.416;2024-01-10T07:49:37;82.60;;;78.90;;
11396;SDS011;5754;43.726;7.416;2024-01-10T07:52:16;82.00;;;78.30;;
11396;SDS011;5754;43.726;7.416;2024-01-10T07:54:51;83.90;;;80.30;;
11396;SDS011;5754;43.726;7.416;2024-01-10T07:57:27;81.73;;;78.23;;
11396;SDS011;5754;43.726;7.416;2024-01-10T08:00:05;80.80;;;77.30;;
11396;SDS011;5754;43.726;7.416;2024-01-10T08:02:44;81.87;;;78.27;;
11396;SDS011;5754;43.726;7.416;2024-01-10T08:05:20;80.37;;;76.63;;
11396;SDS011;5754;43.726;7.416;2024-01-10T08:07:55;81.73;;;78.07;;
11396;SDS011;5754;43.726;7.416;2024-01-10T08:10:32;80.33;;;76.63;;
11396;SDS011;5754;43.726;7.416;2024-01-10T08:13:08;80.40;;;76.63;;
11396;SDS011;5754;43.726;7.416;2024-01-10T08:15:42;80.50;;;77.00;;
11396;SDS011;5754;43.726;7.416;2024-01-10T08:18:20;82.47;;;78.87;;
11396;SDS011;5754;43.726;7.416;2024-01-10T08:20:56;80.33;;;76.70;;
11396;SDS011;5754;43.726;7.416;2024-01-10T08:23:31;79.97;;;76.47;;
11396;SDS011;5754;43.726;7.416;2024-01-10T08:26:08;81.03;;;77.33;;
11396;SDS011;5754;43.726;7.416;2024-01-10T08:28:43;80.20;;;76.47;;
11396;SDS011;5754;43.726;7.416;2024-01-10T08:31:18;81.03;;;77.53;;
11396;SDS011;5754;43.726;7.416;2024-01-10T08:33:54;81.43;;;77.93;;
11396;SDS011;5754;43.726;7.416;2024-01-10T08:36:31;79.47;;;75.90;;
11396;SDS011;5754;43.726;7.416;2024-01-10T08:39:06;81.90;;;78.23;;
11396;SDS011;5754;43.726;7.416;2024-01-10T08:41:43;82.20;;;78.50;;
11396;SDS011;5754;43.726;7.416;2024-01-10T08:44:18;84.50;;;80.80;;
11396;SDS011;5754;43.726;7.416;2024-01-10T08:46:53;81.77;;;78.07;;
11396;SDS011;5754;43.726;7.416;2024-01-10T08:49:27;83.17;;;79.47;;
11396;SDS011;5754;43.726;7.416;2024-01-10T08:52:02;82.97;;;79.17;;
11396;SDS011;5754;43.726;7.416;2024-01-10T08:54:37;84.13;;;80.03;;
11396;SDS011;5754;43.726;7.416;2024-01-10T08:57:12;82.87;;;79.17;;
11396;SDS011;5754;43.726;7.416;2024-01-10T08:59:47;84.70;;;81.10;;
11396;SDS011;5754;43.726;7.416;2024-01-10T09:02:25;84.30;;;80.70;;
11396;SDS011;5754;43.726;7.416;2024-01-10T09:05:01;84.50;;;80.63;;
11396;SDS011;5754;43.726;7.416;2024-01-10T09:07:37;83.93;;;80.03;;
11396;SDS011;5754;43.726;7.416;2024-01-10T09:10:13;83.27;;;79.60;;
11396;SDS011;5754;43.726;7.416;2024-01-10T09:12:48;83.10;;;79.50;;
11396;SDS011;5754;43.726;7.416;2024-01-10T09:15:23;84.33;;;80.67;;
11396;SDS011;5754;43.726;7.416;2024-01-10T09:17:58;85.07;;;81.37;;
11396;SDS011;5754;43.726;7.416;2024-01-10T09:20:34;84.90;;;81.17;;
11396;SDS011;5754;43.726;7.416;2024-01-10T09:23:09;86.67;;;82.87;;
11396;SDS011;5754;43.726;7.416;2024-01-10T09:25:45;85.50;;;81.70;;
11396;SDS011;5754;43.726;7.416;2024-01-10T09:28:21;83.90;;;80.17;;
11396;SDS011;5754;43.726;7.416;2024-01-10T09:30:56;83.67;;;80.03;;
11396;SDS011;5754;43.726;7.416;2024-01-10T09:33:32;83.13;;;79.37;;
11396;SDS011;5754;43.726;7.416;2024-01-10T09:36:09;88.83;;;84.77;;
11396;SDS011;5754;43.726;7.416;2024-01-10T09:38:44;85.43;;;81.53;;
11396;SDS011;5754;43.726;7.416;2024-01-10T09:41:19;85.17;;;81.47;;
11396;SDS011;5754;43.726;7.416;2024-01-10T09:43:55;85.27;;;81.27;;
11396;SDS011;5754;43.726;7.416;2024-01-10T09:46:33;89.00;;;85.10;;
11396;SDS011;5754;43.726;7.416;2024-01-10T09:49:09;86.77;;;82.77;;
11396;SDS011;5754;43.726;7.416;2024-01-10T09:51:45;90.07;;;85.97;;
11396;SDS011;5754;43.726;7.416;2024-01-10T09:54:24;87.60;;;83.67;;
11396;SDS011;5754;43.726;7.416;2024-01-10T09:57:01;90.00;;;86.07;;
11396;SDS011;5754;43.726;7.416;2024-01-10T09:59:37;88.63;;;84.63;;
11396;SDS011;5754;43.726;7.416;2024-01-10T10:02:12;85.87;;;81.97;;
11396;SDS011;5754;43.726;7.416;2024-01-10T10:04:53;86.73;;;82.87;;
11396;SDS011;5754;43.726;7.416;2024-01-10T10:07:42;89.03;;;85.00;;
11396;SDS011;5754;43.726;7.416;2024-01-10T10:10:20;88.73;;;84.83;;
11396;SDS011;5754;43.726;7.416;2024-01-10T10:12:55;87.70;;;83.77;;
11396;SDS011;5754;43.726;7.416;2024-01-10T10:15:30;89.30;;;85.20;;
11396;SDS011;5754;43.726;7.416;2024-01-10T10:18:13;88.30;;;84.30;;
11396;SDS011;5754;43.726;7.416;2024-01-10T10:20:48;87.93;;;83.50;;
11396;SDS011;5754;43.726;7.416;2024-01-10T10:23:24;87.43;;;83.53;;
11396;SDS011;5754;43.726;7.416;2024-01-10T10:26:01;89.10;;;85.10;;
11396;SDS011;5754;43.726;7.416;2024-01-10T10:28:47;90.83;;;86.70;;
11396;SDS011;5754;43.726;7.416;2024-01-10T10:31:22;88.33;;;84.23;;
11396;SDS011;5754;43.726;7.416;2024-01-10T10:34:00;90.03;;;85.63;;
11396;SDS011;5754;43.726;7.416;2024-01-10T10:36:37;90.17;;;86.17;;
11396;SDS011;5754;43.726;7.416;2024-01-10T10:39:12;89.63;;;85.60;;
11396;SDS011;5754;43.726;7.416;2024-01-10T10:41:51;88.70;;;84.40;;
11396;SDS011;5754;43.726;7.416;2024-01-10T10:44:28;91.27;;;87.27;;
11396;SDS011;5754;43.726;7.416;2024-01-10T10:47:04;90.60;;;86.60;;
11396;SDS011;5754;43.726;7.416;2024-01-10T10:49:47;92.30;;;88.10;;
11396;SDS011;5754;43.726;7.416;2024-01-10T10:52:27;95.27;;;90.93;;
11396;SDS011;5754;43.726;7.416;2024-01-10T10:55:03;94.47;;;90.17;;
11396;SDS011;5754;43.726;7.416;2024-01-10T10:57:39;96.33;;;91.80;;
11396;SDS011;5754;43.726;7.416;2024-01-10T11:00:21;91.07;;;86.87;;
11396;SDS011;5754;43.726;7.416;2024-01-10T11:03:01;91.83;;;87.73;;
11396;SDS011;5754;43.726;7.416;2024-01-10T11:05:37;93.47;;;89.07;;
11396;SDS011;5754;43.726;7.416;2024-01-10T11:08:15;96.40;;;92.10;;
11396;SDS011;5754;43.726;7.416;2024-01-10T11:10:56;93.60;;;89.40;;
11396;SDS011;5754;43.726;7.416;2024-01-10T11:13:38;92.33;;;88.13;;
11396;SDS011;5754;43.726;7.416;2024-01-10T11:16:51;95.93;;;91.57;;
11396;SDS011;5754;43.726;7.416;2024-01-10T11:25:16;92.30;;;88.00;;
11396;SDS011;5754;43.726;7.416;2024-01-10T11:27:53;94.37;;;89.97;;
11396;SDS011;5754;43.726;7.416;2024-01-10T11:30:35;91.93;;;87.77;;
11396;SDS011;5754;43.726;7.416;2024-01-10T11:33:23;92.43;;;88.20;;
11396;SDS011;5754;43.726;7.416;2024-01-10T11:36:14;92.37;;;88.03;;
11396;SDS011;5754;43.726;7.416;2024-01-10T11:38:59;91.73;;;87.53;;
11396;SDS011;5754;43.726;7.416;2024-01-10T11:41:36;90.57;;;86.40;;
11396;SDS011;5754;43.726;7.416;2024-01-10T11:47:09;93.37;;;88.80;;
11396;SDS011;5754;43.726;7.416;2024-01-10T11:49:57;91.73;;;87.27;;
11396;SDS011;5754;43.726;7.416;2024-01-10T11:52:32;106.17;;;100.40;;
11396;SDS011;5754;43.726;7.416;2024-01-10T11:55:12;92.10;;;87.80;;
11396;SDS011;5754;43.726;7.416;2024-01-10T11:58:23;91.17;;;86.70;;
11396;SDS011;5754;43.726;7.416;2024-01-10T12:00:58;90.53;;;86.43;;
11396;SDS011;5754;43.726;7.416;2024-01-10T12:03:34;93.43;;;89.23;;
11396;SDS011;5754;43.726;7.416;2024-01-10T12:06:13;89.77;;;85.73;;
11396;SDS011;5754;43.726;7.416;2024-01-10T12:08:50;91.83;;;87.53;;
11396;SDS011;5754;43.726;7.416;2024-01-10T12:11:25;89.90;;;85.80;;
11396;SDS011;5754;43.726;7.416;2024-01-10T12:14:00;91.10;;;86.67;;
11396;SDS011;5754;43.726;7.416;2024-01-10T12:16:39;90.17;;;86.00;;
11396;SDS011;5754;43.726;7.416;2024-01-10T12:19:14;93.73;;;89.43;;
11396;SDS011;5754;43.726;7.416;2024-01-10T12:21:49;89.80;;;85.50;;
11396;SDS011;5754;43.726;7.416;2024-01-10T12:24:26;89.07;;;84.87;;
11396;SDS011;5754;43.726;7.416;2024-01-10T12:27:03;91.03;;;86.93;;
11396;SDS011;5754;43.726;7.416;2024-01-10T12:29:38;90.73;;;86.23;;
11396;SDS011;5754;43.726;7.416;2024-01-10T12:32:14;93.43;;;88.77;;
11396;SDS011;5754;43.726;7.416;2024-01-10T12:35:02;90.53;;;86.10;;
11396;SDS011;5754;43.726;7.416;2024-01-10T12:37:37;90.97;;;86.53;;
11396;SDS011;5754;43.726;7.416;2024-01-10T12:40:12;93.43;;;89.23;;
11396;SDS011;5754;43.726;7.416;2024-01-10T12:42:48;91.17;;;87.07;;
11396;SDS011;5754;43.726;7.416;2024-01-10T12:45:23;90.47;;;86.43;;
11396;SDS011;5754;43.726;7.416;2024-01-10T12:47:58;90.20;;;85.87;;
11396;SDS011;5754;43.726;7.416;2024-01-10T12:50:33;91.23;;;86.80;;
11396;SDS011;5754;43.726;7.416;2024-01-10T12:53:07;92.07;;;87.80;;
11396;SDS011;5754;43.726;7.416;2024-01-10T12:55:43;89.60;;;85.13;;
11396;SDS011;5754;43.726;7.416;2024-01-10T12:58:18;87.80;;;83.50;;
11396;SDS011;5754;43.726;7.416;2024-01-10T13:00:55;91.70;;;87.13;;
11396;SDS011;5754;43.726;7.416;2024-01-10T13:03:31;89.47;;;85.17;;
11396;SDS011;5754;43.726;7.416;2024-01-10T13:06:08;89.97;;;85.50;;
11396;SDS011;5754;43.726;7.416;2024-01-10T13:08:44;90.43;;;85.77;;
11396;SDS011;5754;43.726;7.416;2024-01-10T13:11:20;88.83;;;84.23;;
11396;SDS011;5754;43.726;7.416;2024-01-10T13:13:55;90.57;;;86.37;;
11396;SDS011;5754;43.726;7.416;2024-01-10T13:16:30;88.83;;;84.63;;
11396;SDS011;5754;43.726;7.416;2024-01-10T13:19:12;90.57;;;86.23;;
11396;SDS011;5754;43.726;7.416;2024-01-10T13:21:53;92.00;;;87.60;;
11396;SDS011;5754;43.726;7.416;2024-01-10T13:24:30;87.67;;;83.70;;
11396;SDS011;5754;43.726;7.416;2024-01-10T13:27:13;90.27;;;86.03;;
11396;SDS011;5754;43.726;7.416;2024-01-10T13:29:53;89.07;;;84.60;;
11396;SDS011;5754;43.726;7.416;2024-01-10T13:32:31;92.20;;;87.83;;
11396;SDS011;5754;43.726;7.416;2024-01-10T13:35:07;91.20;;;86.83;;
11396;SDS011;5754;43.726;7.416;2024-01-10T13:37:45;88.20;;;84.10;;
11396;SDS011;5754;43.726;7.416;2024-01-10T13:40:23;91.80;;;87.57;;
11396;SDS011;5754;43.726;7.416;2024-01-10T13:43:01;88.73;;;84.43;;
11396;SDS011;5754;43.726;7.416;2024-01-10T13:45:36;90.37;;;86.03;;
11396;SDS011;5754;43.726;7.416;2024-01-10T13:48:13;89.73;;;85.53;;
11396;SDS011;5754;43.726;7.416;2024-01-10T13:50:48;90.60;;;86.40;;
11396;SDS011;5754;43.726;7.416;2024-01-10T13:53:23;91.47;;;87.27;;
11396;SDS011;5754;43.726;7.416;2024-01-10T13:55:59;91.30;;;86.90;;
11396;SDS011;5754;43.726;7.416;2024-01-10T13:58:36;89.30;;;84.73;;
11396;SDS011;5754;43.726;7.416;2024-01-10T14:01:13;89.10;;;84.77;;
11396;SDS011;5754;43.726;7.416;2024-01-10T14:03:48;89.60;;;85.23;;
11396;SDS011;5754;43.726;7.416;2024-01-10T14:06:23;89.07;;;84.60;;
11396;SDS011;5754;43.726;7.416;2024-01-10T14:08:58;89.77;;;84.87;;
11396;SDS011;5754;43.726;7.416;2024-01-10T14:11:34;91.57;;;87.07;;
11396;SDS011;5754;43.726;7.416;2024-01-10T14:14:12;90.40;;;86.03;;
11396;SDS011;5754;43.726;7.416;2024-01-10T14:16:46;94.23;;;89.53;;
11396;SDS011;5754;43.726;7.416;2024-01-10T14:19:25;87.67;;;83.10;;
11396;SDS011;5754;43.726;7.416;2024-01-10T14:22:00;89.10;;;84.97;;
11396;SDS011;5754;43.726;7.416;2024-01-10T14:24:41;88.40;;;84.20;;
11396;SDS011;5754;43.726;7.416;2024-01-10T14:27:16;88.97;;;84.87;;
11396;SDS011;5754;43.726;7.416;2024-01-10T14:29:51;88.37;;;84.17;;
11396;SDS011;5754;43.726;7.416;2024-01-10T14:32:29;89.17;;;84.83;;
11396;SDS011;5754;43.726;7.416;2024-01-10T14:35:04;88.93;;;84.60;;
11396;SDS011;5754;43.726;7.416;2024-01-10T14:37:42;89.10;;;84.97;;
11396;SDS011;5754;43.726;7.416;2024-01-10T14:40:19;90.63;;;86.13;;
11396;SDS011;5754;43.726;7.416;2024-01-10T14:42:58;91.43;;;87.23;;
11396;SDS011;5754;43.726;7.416;2024-01-10T14:45:34;88.97;;;84.97;;
11396;SDS011;5754;43.726;7.416;2024-01-10T14:48:09;86.40;;;82.40;;
11396;SDS011;5754;43.726;7.416;2024-01-10T14:50:48;91.13;;;86.60;;
11396;SDS011;5754;43.726;7.416;2024-01-10T14:53:26;88.70;;;84.70;;
11396;SDS011;5754;43.726;7.416;2024-01-10T14:56:02;91.03;;;86.70;;
11396;SDS011;5754;43.726;7.416;2024-01-10T14:58:38;89.97;;;85.87;;
11396;SDS011;5754;43.726;7.416;2024-01-10T15:01:15;87.00;;;83.10;;
11396;SDS011;5754;43.726;7.416;2024-01-10T15:03:53;89.00;;;84.80;;
11396;SDS011;5754;43.726;7.416;2024-01-10T15:06:29;88.83;;;84.83;;
11396;SDS011;5754;43.726;7.416;2024-01-10T15:09:04;89.63;;;85.47;;
11396;SDS011;5754;43.726;7.416;2024-01-10T15:11:40;87.87;;;83.87;;
11396;SDS011;5754;43.726;7.416;2024-01-10T15:14:15;88.07;;;83.97;;
11396;SDS011;5754;43.726;7.416;2024-01-10T15:16:50;88.90;;;84.90;;
11396;SDS011;5754;43.726;7.416;2024-01-10T15:19:27;90.57;;;86.13;;
11396;SDS011;5754;43.726;7.416;2024-01-10T15:22:02;88.00;;;83.90;;
11396;SDS011;5754;43.726;7.416;2024-01-10T15:24:37;90.90;;;86.53;;
11396;SDS011;5754;43.726;7.416;2024-01-10T15:27:13;93.47;;;89.07;;
11396;SDS011;5754;43.726;7.416;2024-01-10T15:29:47;89.87;;;85.43;;
11396;SDS011;5754;43.726;7.416;2024-01-10T15:32:27;90.67;;;86.67;;
11396;SDS011;5754;43.726;7.416;2024-01-10T15:35:04;91.27;;;87.17;;
11396;SDS011;5754;43.726;7.416;2024-01-10T15:37:40;88.13;;;83.90;;